Time,TemperatureF,DewpointF,PressureIn,WindDirection,WindDirectionDegrees,WindSpeedMPH,WindSpeedGustMPH,Humidity,HourlyPrecipIn,Conditions,Clouds,dailyrainin,SoftwareType,DateUTC
2013-04-03 00:00:00,52.9,49.1,30.03,WSW,239,1.0,1.0,87,0.00,,,0.00,Wunderground v.1.15,2013-04-03 07:00:00,
2013-04-03 00:05:00,52.6,49.1,30.03,West,264,1.0,3.0,88,0.00,,,0.00,Wunderground v.1.15,2013-04-03 07:05:00,
2013-04-03 00:10:00,52.4,48.9,30.03,WSW,257,1.0,1.0,88,0.00,,,0.00,Wunderground v.1.15,2013-04-03 07:10:00,
2013-04-03 00:17:00,52.1,49.0,30.03,WSW,257,1.0,1.0,89,0.00,,,0.00,Wunderground v.1.15,2013-04-03 07:17:00,
2013-04-03 00:23:00,51.9,48.8,30.03,West,266,0.0,2.0,89,0.00,,,0.00,Wunderground v.1.15,2013-04-03 07:23:00,
2013-04-03 00:28:00,51.7,48.9,30.03,West,266,0.0,2.0,90,0.00,,,0.00,Wunderground v.1.15,2013-04-03 07:28:00,
2013-04-03 00:34:00,51.3,48.2,30.03,West,266,0.0,0.0,89,0.00,,,0.00,Wunderground v.1.15,2013-04-03 07:34:00,
2013-04-03 00:39:00,51.1,48.3,30.03,West,266,0.0,0.0,90,0.00,,,0.00,Wunderground v.1.15,2013-04-03 07:39:00,
2013-04-03 00:45:00,50.9,48.1,30.03,West,266,0.0,0.0,90,0.00,,,0.00,Wunderground v.1.15,2013-04-03 07:45:00,
2013-04-03 00:51:00,50.8,48.3,30.03,WSW,239,0.0,1.0,91,0.00,,,0.00,Wunderground v.1.15,2013-04-03 07:51:00,
2013-04-03 00:57:00,50.7,48.2,30.03,WSW,240,0.0,1.0,91,0.00,,,0.00,Wunderground v.1.15,2013-04-03 07:57:00,
2013-04-03 01:02:00,50.4,47.9,30.03,WSW,240,0.0,0.0,91,0.00,,,0.00,Wunderground v.1.15,2013-04-03 08:02:00,
2013-04-03 01:08:00,50.3,48.1,30.03,WSW,239,0.0,0.0,92,0.00,,,0.00,Wunderground v.1.15,2013-04-03 08:08:00,
2013-04-03 01:14:00,50.0,47.5,30.03,WSW,239,0.0,0.0,91,0.00,,,0.00,Wunderground v.1.15,2013-04-03 08:14:00,
2013-04-03 01:19:00,49.8,47.6,30.03,WSW,240,0.0,0.0,92,0.00,,,0.00,Wunderground v.1.15,2013-04-03 08:19:00,
2013-04-03 01:24:00,49.5,47.3,30.04,WSW,239,0.0,0.0,92,0.00,,,0.00,Wunderground v.1.15,2013-04-03 08:24:00,
2013-04-03 01:29:00,49.2,47.0,30.04,WSW,239,0.0,0.0,92,0.00,,,0.00,Wunderground v.1.15,2013-04-03 08:29:00,
2013-04-03 01:35:00,49.1,46.9,30.04,WSW,239,0.0,0.0,92,0.00,,,0.00,Wunderground v.1.15,2013-04-03 08:35:00,
2013-04-03 01:40:00,49.1,47.2,30.04,WSW,240,0.0,0.0,93,0.00,,,0.00,Wunderground v.1.15,2013-04-03 08:40:00,
2013-04-03 01:45:00,48.9,47.0,30.03,WSW,240,0.0,0.0,93,0.00,,,0.00,Wunderground v.1.15,2013-04-03 08:45:00,
2013-04-03 01:51:00,48.7,46.8,30.03,WSW,240,0.0,0.0,93,0.00,,,0.00,Wunderground v.1.15,2013-04-03 08:51:00,
2013-04-03 01:56:00,48.7,46.8,30.03,WSW,240,0.0,0.0,93,0.00,,,0.00,Wunderground v.1.15,2013-04-03 08:56:00,
2013-04-03 02:02:00,48.4,46.5,30.03,WSW,239,0.0,0.0,93,0.00,,,0.00,Wunderground v.1.15,2013-04-03 09:02:00,
2013-04-03 02:08:00,48.4,46.5,30.03,WSW,239,0.0,0.0,93,0.00,,,0.00,Wunderground v.1.15,2013-04-03 09:08:00,
2013-04-03 02:14:00,48.2,46.3,30.02,WSW,239,0.0,0.0,93,0.00,,,0.00,Wunderground v.1.15,2013-04-03 09:14:00,
2013-04-03 02:20:00,47.9,46.3,30.02,WSW,240,0.0,0.0,94,0.00,,,0.00,Wunderground v.1.15,2013-04-03 09:20:00,
2013-04-03 02:25:00,47.8,46.2,30.02,WSW,239,0.0,0.0,94,0.00,,,0.00,Wunderground v.1.15,2013-04-03 09:25:00,
2013-04-03 02:30:00,47.9,46.3,30.02,WSW,240,0.0,0.0,94,0.00,,,0.00,Wunderground v.1.15,2013-04-03 09:30:00,
2013-04-03 02:35:00,47.8,46.2,30.02,WSW,240,0.0,0.0,94,0.00,,,0.00,Wunderground v.1.15,2013-04-03 09:35:00,
2013-04-03 02:41:00,47.8,46.2,30.02,WSW,239,0.0,0.0,94,0.00,,,0.00,Wunderground v.1.15,2013-04-03 09:41:00,
2013-04-03 02:46:00,47.6,46.0,30.02,WSW,240,0.0,0.0,94,0.00,,,0.00,Wunderground v.1.15,2013-04-03 09:46:00,
2013-04-03 02:51:00,47.7,46.1,30.02,WSW,239,0.0,0.0,94,0.00,,,0.00,Wunderground v.1.15,2013-04-03 09:51:00,
2013-04-03 02:57:00,47.5,45.9,30.01,WSW,239,0.0,0.0,94,0.00,,,0.00,Wunderground v.1.15,2013-04-03 09:57:00,
2013-04-03 03:03:00,47.3,45.7,30.01,WSW,239,0.0,0.0,94,0.00,,,0.00,Wunderground v.1.15,2013-04-03 10:03:00,
2013-04-03 03:08:00,47.1,45.5,30.01,WSW,239,0.0,0.0,94,0.00,,,0.00,Wunderground v.1.15,2013-04-03 10:08:00,
2013-04-03 03:13:00,47.0,45.4,30.01,WSW,239,0.0,0.0,94,0.00,,,0.00,Wunderground v.1.15,2013-04-03 10:13:00,
2013-04-03 03:18:00,46.7,45.1,30.01,WSW,239,0.0,0.0,94,0.00,,,0.00,Wunderground v.1.15,2013-04-03 10:18:00,
2013-04-03 03:23:00,46.5,45.1,30.01,WSW,240,0.0,0.0,95,0.00,,,0.00,Wunderground v.1.15,2013-04-03 10:23:00,
2013-04-03 03:28:00,46.4,44.8,30.01,WSW,239,0.0,0.0,94,0.00,,,0.00,Wunderground v.1.15,2013-04-03 10:28:00,
2013-04-03 03:34:00,46.1,44.5,30.01,WSW,240,0.0,0.0,94,0.00,,,0.00,Wunderground v.1.15,2013-04-03 10:34:00,
2013-04-03 03:40:00,46.1,44.7,30.01,WSW,239,0.0,0.0,95,0.00,,,0.00,Wunderground v.1.15,2013-04-03 10:40:00,
2013-04-03 03:45:00,46.1,44.7,30.01,WSW,239,0.0,0.0,95,0.00,,,0.00,Wunderground v.1.15,2013-04-03 10:45:00,
2013-04-03 03:52:00,46.2,44.8,30.01,WSW,239,0.0,0.0,95,0.00,,,0.00,Wunderground v.1.15,2013-04-03 10:52:00,
2013-04-03 03:57:00,46.1,44.7,30.01,WSW,239,0.0,0.0,95,0.00,,,0.00,Wunderground v.1.15,2013-04-03 10:57:00,
2013-04-03 04:03:00,45.9,44.5,30.01,WSW,239,0.0,0.0,95,0.00,,,0.00,Wunderground v.1.15,2013-04-03 11:03:00,
2013-04-03 04:08:00,46.1,44.7,30.01,WSW,240,0.0,0.0,95,0.00,,,0.00,Wunderground v.1.15,2013-04-03 11:08:00,
2013-04-03 04:13:00,46.2,44.8,30.01,WSW,239,0.0,0.0,95,0.00,,,0.00,Wunderground v.1.15,2013-04-03 11:13:00,
2013-04-03 04:18:00,46.5,45.4,30.01,WSW,239,0.0,0.0,96,0.00,,,0.00,Wunderground v.1.15,2013-04-03 11:18:00,
2013-04-03 04:23:00,46.7,45.3,30.00,WSW,240,0.0,0.0,95,0.00,,,0.00,Wunderground v.1.15,2013-04-03 11:23:00,
2013-04-03 04:28:00,46.8,45.4,30.00,WSW,240,0.0,0.0,95,0.00,,,0.00,Wunderground v.1.15,2013-04-03 11:28:00,
2013-04-03 04:34:00,46.9,45.5,30.01,WSW,239,0.0,0.0,95,0.00,,,0.00,Wunderground v.1.15,2013-04-03 11:34:00,
2013-04-03 04:39:00,46.9,45.5,30.00,WSW,239,0.0,0.0,95,0.00,,,0.00,Wunderground v.1.15,2013-04-03 11:39:00,
2013-04-03 04:45:00,47.0,45.6,30.00,WSW,239,0.0,0.0,95,0.00,,,0.00,Wunderground v.1.15,2013-04-03 11:45:00,
2013-04-03 04:53:00,47.1,45.7,30.00,WSW,239,0.0,0.0,95,0.00,,,0.00,Wunderground v.1.15,2013-04-03 11:53:00,
2013-04-03 04:58:00,47.3,45.9,30.01,WSW,239,0.0,0.0,95,0.00,,,0.00,Wunderground v.1.15,2013-04-03 11:58:00,
2013-04-03 05:04:00,47.5,46.4,30.00,WSW,240,0.0,0.0,96,0.00,,,0.00,Wunderground v.1.15,2013-04-03 12:04:00,
2013-04-03 05:09:00,47.5,46.1,30.00,SW,236,0.0,0.0,95,0.00,,,0.00,Wunderground v.1.15,2013-04-03 12:09:00,
2013-04-03 05:14:00,47.6,46.2,30.00,WSW,237,0.0,0.0,95,0.00,,,0.00,Wunderground v.1.15,2013-04-03 12:14:00,
2013-04-03 05:20:00,47.5,46.1,30.00,WSW,237,0.0,0.0,95,0.00,,,0.00,Wunderground v.1.15,2013-04-03 12:20:00,
2013-04-03 05:26:00,47.4,46.0,30.00,WSW,237,0.0,0.0,95,0.00,,,0.00,Wunderground v.1.15,2013-04-03 12:26:00,
2013-04-03 05:32:00,47.3,45.9,30.00,WSW,237,0.0,0.0,95,0.00,,,0.00,Wunderground v.1.15,2013-04-03 12:32:00,
2013-04-03 05:38:00,47.3,45.9,30.00,WSW,237,0.0,0.0,95,0.00,,,0.00,Wunderground v.1.15,2013-04-03 12:38:00,
2013-04-03 05:43:00,47.3,45.9,30.00,WSW,237,0.0,0.0,95,0.00,,,0.00,Wunderground v.1.15,2013-04-03 12:43:00,
2013-04-03 05:49:00,47.3,45.9,30.00,WSW,237,0.0,0.0,95,0.00,,,0.00,Wunderground v.1.15,2013-04-03 12:49:00,
2013-04-03 05:55:00,47.3,45.9,30.00,SW,236,0.0,0.0,95,0.00,,,0.00,Wunderground v.1.15,2013-04-03 12:55:00,
2013-04-03 06:00:00,47.2,45.8,30.00,WSW,237,0.0,0.0,95,0.00,,,0.00,Wunderground v.1.15,2013-04-03 13:00:00,
2013-04-03 06:05:00,47.2,45.8,29.99,SW,236,0.0,0.0,95,0.00,,,0.00,Wunderground v.1.15,2013-04-03 13:05:00,
2013-04-03 06:11:00,47.1,46.0,30.00,SW,236,0.0,0.0,96,0.00,,,0.00,Wunderground v.1.15,2013-04-03 13:11:00,
2013-04-03 06:16:00,47.1,46.0,30.00,SW,236,0.0,0.0,96,0.00,,,0.00,Wunderground v.1.15,2013-04-03 13:16:00,
2013-04-03 06:21:00,47.1,46.0,29.99,SW,234,0.0,0.0,96,0.00,,,0.00,Wunderground v.1.15,2013-04-03 13:21:00,
2013-04-03 06:27:00,47.1,46.0,30.00,SW,234,0.0,0.0,96,0.00,,,0.00,Wunderground v.1.15,2013-04-03 13:27:00,
2013-04-03 06:33:00,47.0,45.9,30.00,SW,219,0.0,2.0,96,0.00,,,0.00,Wunderground v.1.15,2013-04-03 13:33:00,
2013-04-03 06:39:00,47.0,45.9,30.00,SW,214,1.0,2.0,96,0.00,,,0.00,Wunderground v.1.15,2013-04-03 13:39:00,
2013-04-03 06:44:00,47.0,45.9,30.00,SW,214,0.0,0.0,96,0.00,,,0.00,Wunderground v.1.15,2013-04-03 13:44:00,
2013-04-03 06:49:00,47.0,45.9,30.01,SW,214,0.0,0.0,96,0.00,,,0.00,Wunderground v.1.15,2013-04-03 13:49:00,
2013-04-03 06:54:00,47.0,45.9,30.00,SW,214,0.0,0.0,96,0.00,,,0.00,Wunderground v.1.15,2013-04-03 13:54:00,
2013-04-03 06:59:00,46.9,45.8,30.01,SW,214,0.0,0.0,96,0.00,,,0.00,Wunderground v.1.15,2013-04-03 13:59:00,
2013-04-03 07:05:00,46.7,45.6,30.01,SW,214,0.0,0.0,96,0.00,,,0.00,Wunderground v.1.15,2013-04-03 14:05:00,
2013-04-03 07:10:00,46.8,45.7,30.01,SW,214,0.0,0.0,96,0.00,,,0.00,Wunderground v.1.15,2013-04-03 14:10:00,
2013-04-03 07:17:00,46.7,45.6,30.01,SSW,210,0.0,0.0,96,0.00,,,0.00,Wunderground v.1.15,2013-04-03 14:17:00,
2013-04-03 07:23:00,46.6,45.5,30.01,SSW,210,0.0,0.0,96,0.00,,,0.00,Wunderground v.1.15,2013-04-03 14:23:00,
2013-04-03 07:28:00,46.6,45.5,30.01,SSW,210,0.0,0.0,96,0.00,,,0.00,Wunderground v.1.15,2013-04-03 14:28:00,
2013-04-03 07:33:00,46.6,45.5,30.02,SSW,210,0.0,0.0,96,0.00,,,0.00,Wunderground v.1.15,2013-04-03 14:33:00,
2013-04-03 07:39:00,46.8,45.7,30.01,SSW,210,0.0,2.0,96,0.00,,,0.00,Wunderground v.1.15,2013-04-03 14:39:00,
2013-04-03 07:44:00,46.9,45.8,30.01,SSW,212,1.0,1.0,96,0.00,,,0.00,Wunderground v.1.15,2013-04-03 14:44:00,
2013-04-03 07:50:00,46.9,45.8,30.02,SSW,213,1.0,1.0,96,0.00,,,0.00,Wunderground v.1.15,2013-04-03 14:50:00,
2013-04-03 07:56:00,46.8,45.7,30.02,SSW,212,0.0,1.0,96,0.00,,,0.00,Wunderground v.1.15,2013-04-03 14:56:00,
2013-04-03 08:01:00,47.0,45.9,30.02,SSW,213,0.0,0.0,96,0.00,,,0.00,Wunderground v.1.15,2013-04-03 15:01:00,
2013-04-03 08:06:00,47.2,46.1,30.02,SSW,213,0.0,0.0,96,0.00,,,0.00,Wunderground v.1.15,2013-04-03 15:06:00,
2013-04-03 08:11:00,47.2,46.1,30.02,SSW,212,0.0,0.0,96,0.00,,,0.00,Wunderground v.1.15,2013-04-03 15:11:00,
2013-04-03 08:17:00,47.3,46.2,30.02,SSW,212,0.0,0.0,96,0.00,,,0.00,Wunderground v.1.15,2013-04-03 15:17:00,
2013-04-03 08:23:00,47.5,46.4,30.03,SSW,212,0.0,0.0,96,0.00,,,0.00,Wunderground v.1.15,2013-04-03 15:23:00,
2013-04-03 08:29:00,47.9,46.8,30.03,SSW,212,0.0,0.0,96,0.00,,,0.00,Wunderground v.1.15,2013-04-03 15:29:00,
2013-04-03 08:35:00,47.9,46.8,30.03,SSW,212,0.0,0.0,96,0.00,,,0.00,Wunderground v.1.15,2013-04-03 15:35:00,
2013-04-03 08:42:00,48.0,46.9,30.03,SSW,212,0.0,0.0,96,0.00,,,0.00,Wunderground v.1.15,2013-04-03 15:42:00,
2013-04-03 08:48:00,48.4,47.3,30.03,SSW,212,0.0,0.0,96,0.00,,,0.00,Wunderground v.1.15,2013-04-03 15:48:00,
2013-04-03 08:54:00,48.6,47.5,30.03,West,271,0.0,2.0,96,0.00,,,0.00,Wunderground v.1.15,2013-04-03 15:54:00,
2013-04-03 08:59:00,48.6,47.5,30.03,NE,53,0.0,2.0,96,0.00,,,0.00,Wunderground v.1.15,2013-04-03 15:59:00,
2013-04-03 09:05:00,48.6,47.5,30.03,NE,53,0.0,0.0,96,0.00,,,0.00,Wunderground v.1.15,2013-04-03 16:05:00,
2013-04-03 09:11:00,48.8,47.7,30.02,NNE,24,0.0,0.0,96,0.00,,,0.00,Wunderground v.1.15,2013-04-03 16:11:00,
2013-04-03 09:17:00,49.1,48.0,30.02,North,8,0.0,1.0,96,0.00,,,0.00,Wunderground v.1.15,2013-04-03 16:17:00,
2013-04-03 09:22:00,49.8,48.7,30.02,NNE,15,0.0,1.0,96,0.00,,,0.00,Wunderground v.1.15,2013-04-03 16:22:00,
2013-04-03 09:27:00,50.5,49.4,30.02,NNE,14,0.0,1.0,96,0.00,,,0.00,Wunderground v.1.15,2013-04-03 16:27:00,
2013-04-03 09:32:00,51.2,50.1,30.02,NNE,14,0.0,0.0,96,0.00,,,0.00,Wunderground v.1.15,2013-04-03 16:32:00,
2013-04-03 09:38:00,51.4,49.7,30.02,West,281,0.0,1.0,94,0.00,,,0.00,Wunderground v.1.15,2013-04-03 16:38:00,
2013-04-03 09:43:00,52.1,50.7,30.02,West,280,1.0,1.0,95,0.00,,,0.00,Wunderground v.1.15,2013-04-03 16:43:00,
2013-04-03 09:49:00,53.0,51.3,30.02,West,281,0.0,2.0,94,0.00,,,0.00,Wunderground v.1.15,2013-04-03 16:49:00,
2013-04-03 09:55:00,54.3,52.0,30.02,West,277,0.0,0.0,92,0.00,,,0.00,Wunderground v.1.15,2013-04-03 16:55:00,
2013-04-03 10:01:00,55.6,52.1,30.02,West,273,0.0,1.0,88,0.00,,,0.00,Wunderground v.1.15,2013-04-03 17:01:00,
2013-04-03 10:06:00,56.0,51.2,30.02,NW,310,1.0,2.0,84,0.00,,,0.00,Wunderground v.1.15,2013-04-03 17:06:00,
2013-04-03 10:12:00,56.8,51.7,30.02,South,185,1.0,1.0,83,0.00,,,0.00,Wunderground v.1.15,2013-04-03 17:12:00,
2013-04-03 10:17:00,57.8,50.6,30.03,SW,231,1.0,2.0,77,0.00,,,0.00,Wunderground v.1.15,2013-04-03 17:17:00,
2013-04-03 10:23:00,58.8,50.9,30.02,West,269,1.0,2.0,75,0.00,,,0.00,Wunderground v.1.15,2013-04-03 17:23:00,
2013-04-03 10:29:00,59.2,50.5,30.02,West,274,1.0,4.0,73,0.00,,,0.00,Wunderground v.1.15,2013-04-03 17:29:00,
2013-04-03 10:35:00,60.4,49.8,30.02,WSW,244,1.0,1.0,68,0.00,,,0.00,Wunderground v.1.15,2013-04-03 17:35:00,
2013-04-03 10:40:00,61.3,51.0,30.02,WNW,285,1.0,1.0,69,0.00,,,0.00,Wunderground v.1.15,2013-04-03 17:40:00,
2013-04-03 10:45:00,61.5,50.4,30.02,NNE,13,1.0,2.0,67,0.00,,,0.00,Wunderground v.1.15,2013-04-03 17:45:00,
2013-04-03 10:51:00,61.7,49.8,30.02,NNE,17,1.0,2.0,65,0.00,,,0.00,Wunderground v.1.15,2013-04-03 17:51:00,
2013-04-03 10:57:00,62.2,49.9,30.02,ENE,59,1.0,2.0,64,0.00,,,0.00,Wunderground v.1.15,2013-04-03 17:57:00,
2013-04-03 11:03:00,63.0,50.6,30.01,WNW,285,1.0,1.0,64,0.00,,,0.00,Wunderground v.1.15,2013-04-03 18:03:00,
2013-04-03 11:09:00,63.9,50.6,30.01,North,350,0.0,2.0,62,0.00,,,0.00,Wunderground v.1.15,2013-04-03 18:09:00,
2013-04-03 11:14:00,64.5,50.3,30.01,NNW,336,1.0,2.0,60,0.00,,,0.00,Wunderground v.1.15,2013-04-03 18:14:00,
2013-04-03 11:19:00,65.2,50.0,30.01,WNW,292,1.0,2.0,58,0.00,,,0.00,Wunderground v.1.15,2013-04-03 18:19:00,
2013-04-03 11:25:00,65.4,49.8,30.01,NNE,18,1.0,2.0,57,0.00,,,0.00,Wunderground v.1.15,2013-04-03 18:25:00,
2013-04-03 12:06:00,69.7,50.8,29.99,West,273,1.0,3.0,51,0.00,,,0.00,Wunderground v.1.15,2013-04-03 19:06:00,
2013-04-03 12:13:00,70.4,51.4,29.99,South,188,2.0,2.0,51,0.00,,,0.00,Wunderground v.1.15,2013-04-03 19:13:00,
2013-04-03 12:18:00,70.9,52.9,29.98,NW,321,2.0,3.0,53,0.00,,,0.00,Wunderground v.1.15,2013-04-03 19:18:00,
2013-04-03 12:25:00,70.6,52.1,29.98,NNW,335,2.0,4.0,52,0.00,,,0.00,Wunderground v.1.15,2013-04-03 19:25:00,
2013-04-03 12:30:00,71.2,52.7,29.98,NE,37,2.0,5.0,52,0.00,,,0.00,Wunderground v.1.15,2013-04-03 19:30:00,
2013-04-03 12:36:00,72.2,52.5,29.98,East,86,3.0,5.0,50,0.00,,,0.00,Wunderground v.1.15,2013-04-03 19:36:00,
2013-04-03 12:42:00,71.9,51.7,29.97,North,3,3.0,7.0,49,0.00,,,0.00,Wunderground v.1.15,2013-04-03 19:42:00,
2013-04-03 12:47:00,71.9,51.7,29.97,NE,48,4.0,7.0,49,0.00,,,0.00,Wunderground v.1.15,2013-04-03 19:47:00,
2013-04-03 12:52:00,71.9,51.7,29.97,NE,44,4.0,7.0,49,0.00,,,0.00,Wunderground v.1.15,2013-04-03 19:52:00,
2013-04-03 12:58:00,71.9,51.1,29.97,North,11,4.0,7.0,48,0.00,,,0.00,Wunderground v.1.15,2013-04-03 19:58:00,
2013-04-03 13:03:00,72.2,52.5,29.97,East,84,3.0,4.0,50,0.00,,,0.00,Wunderground v.1.15,2013-04-03 20:03:00,
2013-04-03 13:08:00,71.9,51.1,29.96,East,82,4.0,5.0,48,0.00,,,0.00,Wunderground v.1.15,2013-04-03 20:08:00,
2013-04-03 13:14:00,72.1,51.9,29.96,ESE,117,4.0,5.0,49,0.00,,,0.00,Wunderground v.1.15,2013-04-03 20:14:00,
2013-04-03 13:19:00,72.4,51.0,29.96,East,97,4.0,5.0,47,0.00,,,0.00,Wunderground v.1.15,2013-04-03 20:19:00,
2013-04-03 13:24:00,72.6,50.6,29.96,SE,124,3.0,5.0,46,0.00,,,0.00,Wunderground v.1.15,2013-04-03 20:24:00,
2013-04-03 13:30:00,72.5,52.2,29.95,NNE,24,3.0,4.0,49,0.00,,,0.00,Wunderground v.1.15,2013-04-03 20:30:00,
2013-04-03 13:36:00,72.0,50.1,29.95,ENE,72,4.0,7.0,46,0.00,,,0.00,Wunderground v.1.15,2013-04-03 20:36:00,
2013-04-03 13:42:00,71.5,50.8,29.95,NE,53,5.0,5.0,48,0.00,,,0.00,Wunderground v.1.15,2013-04-03 20:42:00,
2013-04-03 13:48:00,72.8,52.5,29.95,ESE,117,3.0,5.0,49,0.00,,,0.00,Wunderground v.1.15,2013-04-03 20:48:00,
2013-04-03 13:54:00,73.2,52.3,29.95,North,353,3.0,3.0,48,0.00,,,0.00,Wunderground v.1.15,2013-04-03 20:54:00,
2013-04-03 14:00:00,73.1,52.2,29.94,NW,319,4.0,4.0,48,0.00,,,0.00,Wunderground v.1.15,2013-04-03 21:00:00,
2013-04-03 14:06:00,73.5,51.4,29.94,ENE,70,4.0,5.0,46,0.00,,,0.00,Wunderground v.1.15,2013-04-03 21:06:00,
2013-04-03 14:12:00,73.5,51.4,29.94,ENE,77,3.0,4.0,46,0.00,,,0.00,Wunderground v.1.15,2013-04-03 21:12:00,
2013-04-03 14:18:00,73.6,52.1,29.93,ENE,73,4.0,6.0,47,0.00,,,0.00,Wunderground v.1.15,2013-04-03 21:18:00,
2013-04-03 14:24:00,73.8,52.3,29.93,SSE,153,4.0,5.0,47,0.00,,,0.00,Wunderground v.1.15,2013-04-03 21:24:00,
2013-04-03 14:30:00,73.6,51.5,29.93,NNW,348,4.0,4.0,46,0.00,,,0.00,Wunderground v.1.15,2013-04-03 21:30:00,
2013-04-03 14:35:00,74.1,52.0,29.93,NNE,27,4.0,4.0,46,0.00,,,0.00,Wunderground v.1.15,2013-04-03 21:35:00,
2013-04-03 14:42:00,74.2,52.7,29.93,NNE,33,3.0,4.0,47,0.00,,,0.00,Wunderground v.1.15,2013-04-03 21:42:00,
2013-04-03 14:47:00,73.9,52.4,29.92,NE,36,3.0,4.0,47,0.00,,,0.00,Wunderground v.1.15,2013-04-03 21:47:00,
2013-04-03 14:52:00,74.5,52.4,29.92,North,353,4.0,6.0,46,0.00,,,0.00,Wunderground v.1.15,2013-04-03 21:52:00,
2013-04-03 14:58:00,74.2,52.7,29.92,ESE,120,4.0,6.0,47,0.00,,,0.00,Wunderground v.1.15,2013-04-03 21:58:00,
2013-04-03 15:03:00,74.4,52.9,29.91,ENE,68,3.0,6.0,47,0.00,,,0.00,Wunderground v.1.15,2013-04-03 22:03:00,
2013-04-03 15:08:00,74.6,53.0,29.91,ENE,62,3.0,6.0,47,0.00,,,0.00,Wunderground v.1.15,2013-04-03 22:08:00,
2013-04-03 15:13:00,75.0,54.0,29.91,NNE,27,3.0,4.0,48,0.00,,,0.00,Wunderground v.1.15,2013-04-03 22:13:00,
2013-04-03 15:19:00,75.1,53.5,29.91,East,82,3.0,5.0,47,0.00,,,0.00,Wunderground v.1.15,2013-04-03 22:19:00,
2013-04-03 15:24:00,75.3,53.7,29.91,East,100,3.0,4.0,47,0.00,,,0.00,Wunderground v.1.15,2013-04-03 22:24:00,
2013-04-03 15:30:00,75.2,53.6,29.91,NNE,27,3.0,3.0,47,0.00,,,0.00,Wunderground v.1.15,2013-04-03 22:30:00,
2013-04-03 15:35:00,75.1,53.5,29.90,NE,42,3.0,6.0,47,0.00,,,0.00,Wunderground v.1.15,2013-04-03 22:35:00,
2013-04-03 15:40:00,75.2,53.6,29.90,NNW,333,3.0,3.0,47,0.00,,,0.00,Wunderground v.1.15,2013-04-03 22:40:00,
2013-04-03 15:45:00,75.6,53.9,29.90,NW,311,3.0,5.0,47,0.00,,,0.00,Wunderground v.1.15,2013-04-03 22:45:00,
2013-04-03 15:50:00,75.7,54.0,29.90,WNW,288,3.0,3.0,47,0.00,,,0.00,Wunderground v.1.15,2013-04-03 22:50:00,
2013-04-03 15:56:00,75.5,53.9,29.90,NNW,333,4.0,5.0,47,0.00,,,0.00,Wunderground v.1.15,2013-04-03 22:56:00,
2013-04-03 16:02:00,75.4,53.8,29.89,NNE,22,4.0,6.0,47,0.00,,,0.00,Wunderground v.1.15,2013-04-03 23:02:00,
2013-04-03 16:08:00,75.4,54.3,29.89,NNW,340,4.0,6.0,48,0.00,,,0.00,Wunderground v.1.15,2013-04-03 23:08:00,
2013-04-03 16:13:00,75.3,53.7,29.89,NNE,31,4.0,5.0,47,0.00,,,0.00,Wunderground v.1.15,2013-04-03 23:13:00,
2013-04-03 16:18:00,75.4,53.8,29.89,NW,307,3.0,6.0,47,0.00,,,0.00,Wunderground v.1.15,2013-04-03 23:18:00,
2013-04-03 16:23:00,75.3,54.3,29.89,NNE,24,3.0,4.0,48,0.00,,,0.00,Wunderground v.1.15,2013-04-03 23:23:00,
2013-04-03 16:29:00,75.2,54.2,29.89,WNW,286,3.0,4.0,48,0.00,,,0.00,Wunderground v.1.15,2013-04-03 23:29:00,
2013-04-03 16:34:00,75.3,54.3,29.88,NW,319,3.0,3.0,48,0.00,,,0.00,Wunderground v.1.15,2013-04-03 23:34:00,
2013-04-03 16:40:00,74.9,53.9,29.88,WNW,286,2.0,2.0,48,0.00,,,0.00,Wunderground v.1.15,2013-04-03 23:40:00,
2013-04-03 16:45:00,74.9,53.9,29.88,NNW,330,3.0,3.0,48,0.00,,,0.00,Wunderground v.1.15,2013-04-03 23:45:00,
2013-04-03 16:51:00,75.2,53.6,29.88,NW,314,3.0,4.0,47,0.00,,,0.00,Wunderground v.1.15,2013-04-03 23:51:00,
2013-04-03 16:57:00,75.1,54.6,29.88,NE,37,3.0,5.0,49,0.00,,,0.00,Wunderground v.1.15,2013-04-03 23:57:00,
2013-04-03 17:03:00,75.1,54.1,29.87,NW,326,3.0,3.0,48,0.00,,,0.00,Wunderground v.1.15,2013-04-04 00:03:00,
2013-04-03 17:08:00,75.2,54.2,29.87,North,8,1.0,3.0,48,0.00,,,0.00,Wunderground v.1.15,2013-04-04 00:08:00,
2013-04-03 17:13:00,75.4,53.8,29.87,NW,310,1.0,3.0,47,0.00,,,0.00,Wunderground v.1.15,2013-04-04 00:13:00,
2013-04-03 17:19:00,75.2,54.2,29.87,NE,38,2.0,3.0,48,0.00,,,0.00,Wunderground v.1.15,2013-04-04 00:19:00,
2013-04-03 17:25:00,74.9,53.3,29.87,East,96,2.0,3.0,47,0.00,,,0.00,Wunderground v.1.15,2013-04-04 00:25:00,
2013-04-03 17:31:00,74.7,54.3,29.87,North,350,1.0,2.0,49,0.00,,,0.00,Wunderground v.1.15,2013-04-04 00:31:00,
2013-04-03 17:37:00,74.6,54.2,29.87,WNW,298,2.0,3.0,49,0.00,,,0.00,Wunderground v.1.15,2013-04-04 00:37:00,
2013-04-03 17:42:00,74.5,54.1,29.86,ENE,72,2.0,2.0,49,0.00,,,0.00,Wunderground v.1.15,2013-04-04 00:42:00,
2013-04-03 17:48:00,74.8,54.4,29.86,ENE,68,2.0,4.0,49,0.00,,,0.00,Wunderground v.1.15,2013-04-04 00:48:00,
2013-04-03 17:54:00,74.7,53.7,29.87,East,94,2.0,3.0,48,0.00,,,0.00,Wunderground v.1.15,2013-04-04 00:54:00,
2013-04-03 18:00:00,74.6,53.6,29.86,ENE,69,1.0,1.0,48,0.00,,,0.00,Wunderground v.1.15,2013-04-04 01:00:00,
2013-04-03 18:06:00,74.7,54.3,29.86,NE,52,1.0,2.0,49,0.00,,,0.00,Wunderground v.1.15,2013-04-04 01:06:00,
2013-04-03 18:11:00,74.6,53.6,29.86,ENE,60,2.0,2.0,48,0.00,,,0.00,Wunderground v.1.15,2013-04-04 01:11:00,
2013-04-03 18:17:00,74.3,53.9,29.86,ESE,120,1.0,2.0,49,0.00,,,0.00,Wunderground v.1.15,2013-04-04 01:17:00,
2013-04-03 18:23:00,74.6,53.6,29.87,ESE,121,0.0,1.0,48,0.00,,,0.00,Wunderground v.1.15,2013-04-04 01:23:00,
2013-04-03 18:28:00,74.3,53.9,29.87,WNW,284,0.0,2.0,49,0.00,,,0.00,Wunderground v.1.15,2013-04-04 01:28:00,
2013-04-03 18:34:00,73.5,53.2,29.87,West,271,1.0,1.0,49,0.00,,,0.00,Wunderground v.1.15,2013-04-04 01:34:00,
2013-04-03 18:39:00,72.5,52.2,29.87,West,276,2.0,5.0,49,0.00,,,0.00,Wunderground v.1.15,2013-04-04 01:39:00,
2013-04-03 18:47:00,70.5,51.5,29.87,West,261,4.0,8.0,51,0.00,,,0.00,Wunderground v.1.15,2013-04-04 01:47:00,
2013-04-03 18:52:00,69.8,51.9,29.87,SSW,213,4.0,7.0,53,0.00,,,0.00,Wunderground v.1.15,2013-04-04 01:52:00,
2013-04-03 18:58:00,69.1,51.8,29.88,SW,236,3.0,7.0,54,0.00,,,0.00,Wunderground v.1.15,2013-04-04 01:58:00,
2013-04-03 19:04:00,68.4,50.6,29.88,West,262,3.0,4.0,53,0.00,,,0.00,Wunderground v.1.15,2013-04-04 02:04:00,
2013-04-03 19:10:00,67.8,50.5,29.88,WSW,257,4.0,4.0,54,0.00,,,0.00,Wunderground v.1.15,2013-04-04 02:10:00,
2013-04-03 19:15:00,67.4,50.7,29.88,West,265,3.0,4.0,55,0.00,,,0.00,Wunderground v.1.15,2013-04-04 02:15:00,
2013-04-03 19:22:00,67.0,50.8,29.87,West,266,3.0,3.0,56,0.00,,,0.00,Wunderground v.1.15,2013-04-04 02:22:00,
2013-04-03 19:28:00,66.8,51.1,29.87,West,264,3.0,3.0,57,0.00,,,0.00,Wunderground v.1.15,2013-04-04 02:28:00,
2013-04-03 19:33:00,66.6,51.4,29.87,WSW,250,1.0,2.0,58,0.00,,,0.00,Wunderground v.1.15,2013-04-04 02:33:00,
2013-04-03 19:39:00,66.2,51.0,29.87,WSW,255,0.0,2.0,58,0.00,,,0.00,Wunderground v.1.15,2013-04-04 02:39:00,
2013-04-03 19:44:00,66.0,51.3,29.88,SW,228,0.0,2.0,59,0.00,,,0.00,Wunderground v.1.15,2013-04-04 02:44:00,
2013-04-03 19:49:00,65.8,51.1,29.88,SW,229,0.0,2.0,59,0.00,,,0.00,Wunderground v.1.15,2013-04-04 02:49:00,
2013-04-03 19:55:00,65.5,51.2,29.88,WSW,240,0.0,1.0,60,0.00,,,0.00,Wunderground v.1.15,2013-04-04 02:55:00,
2013-04-03 20:00:00,65.4,51.1,29.88,WSW,240,0.0,0.0,60,0.00,,,0.00,Wunderground v.1.15,2013-04-04 03:00:00,
2013-04-03 20:06:00,65.1,50.9,29.88,SW,229,0.0,2.0,60,0.00,,,0.00,Wunderground v.1.15,2013-04-04 03:06:00,
2013-04-03 20:11:00,65.0,50.8,29.88,SW,226,1.0,2.0,60,0.00,,,0.00,Wunderground v.1.15,2013-04-04 03:11:00,
2013-04-03 20:17:00,64.8,51.0,29.88,WSW,257,1.0,3.0,61,0.00,,,0.00,Wunderground v.1.15,2013-04-04 03:17:00,
2013-04-03 20:22:00,64.4,50.7,29.88,WSW,252,2.0,3.0,61,0.00,,,0.00,Wunderground v.1.15,2013-04-04 03:22:00,
2013-04-03 20:28:00,64.0,50.7,29.88,West,261,1.0,3.0,62,0.00,,,0.00,Wunderground v.1.15,2013-04-04 03:28:00,
2013-04-03 20:33:00,63.7,50.9,29.88,SW,224,0.0,1.0,63,0.00,,,0.00,Wunderground v.1.15,2013-04-04 03:33:00,
2013-04-03 20:38:00,63.4,51.0,29.88,SW,224,0.0,1.0,64,0.00,,,0.00,Wunderground v.1.15,2013-04-04 03:38:00,
2013-04-03 20:44:00,63.0,51.0,29.88,SW,224,0.0,0.0,65,0.00,,,0.00,Wunderground v.1.15,2013-04-04 03:44:00,
2013-04-03 20:49:00,62.6,51.1,29.88,SW,224,0.0,0.0,66,0.00,,,0.00,Wunderground v.1.15,2013-04-04 03:49:00,
2013-04-03 20:55:00,62.2,51.1,29.89,SW,224,0.0,0.0,67,0.00,,,0.00,Wunderground v.1.15,2013-04-04 03:55:00,
2013-04-03 21:00:00,61.9,50.8,29.89,SW,224,0.0,0.0,67,0.00,,,0.00,Wunderground v.1.15,2013-04-04 04:00:00,
2013-04-03 21:02:00,61.8,51.1,29.89,SW,224,0.0,0.0,68,0.00,,,0.00,Wunderground v.1.15,2013-04-04 04:02:00,
2013-04-03 21:05:00,61.7,51.0,29.89,SW,224,0.0,0.0,68,0.00,,,0.00,Wunderground v.1.15,2013-04-04 04:05:00,
2013-04-03 21:07:00,61.6,50.9,29.89,SW,224,0.0,0.0,68,0.00,,,0.00,Wunderground v.1.15,2013-04-04 04:07:00,
2013-04-03 21:13:00,61.2,50.9,29.89,SW,224,0.0,0.0,69,0.00,,,0.00,Wunderground v.1.15,2013-04-04 04:13:00,
2013-04-03 21:18:00,60.9,50.7,29.89,SW,224,0.0,0.0,69,0.00,,,0.00,Wunderground v.1.15,2013-04-04 04:18:00,
2013-04-03 21:23:00,60.5,50.7,29.89,SW,224,0.0,0.0,70,0.00,,,0.00,Wunderground v.1.15,2013-04-04 04:23:00,
2013-04-03 21:28:00,60.5,51.0,29.90,SW,224,0.0,0.0,71,0.00,,,0.00,Wunderground v.1.15,2013-04-04 04:28:00,
2013-04-03 21:33:00,60.4,51.0,29.90,SW,224,0.0,0.0,71,0.00,,,0.00,Wunderground v.1.15,2013-04-04 04:33:00,
2013-04-03 21:39:00,60.0,50.2,29.90,SW,224,0.0,0.0,70,0.00,,,0.00,Wunderground v.1.15,2013-04-04 04:39:00,
2013-04-03 21:45:00,59.4,50.4,29.90,SW,224,0.0,0.0,72,0.00,,,0.00,Wunderground v.1.15,2013-04-04 04:45:00,
2013-04-03 21:51:00,59.0,50.7,29.90,SW,224,0.0,0.0,74,0.00,,,0.00,Wunderground v.1.15,2013-04-04 04:51:00,
2013-04-03 21:56:00,58.9,50.6,29.90,SW,224,0.0,0.0,74,0.00,,,0.00,Wunderground v.1.15,2013-04-04 04:56:00,
2013-04-03 22:02:00,58.8,50.5,29.90,SW,224,0.0,0.0,74,0.00,,,0.00,Wunderground v.1.15,2013-04-04 05:02:00,
2013-04-03 22:08:00,58.9,51.0,29.91,SW,224,0.0,0.0,75,0.00,,,0.00,Wunderground v.1.15,2013-04-04 05:08:00,
2013-04-03 22:13:00,58.8,50.9,29.91,SW,224,0.0,0.0,75,0.00,,,0.00,Wunderground v.1.15,2013-04-04 05:13:00,
2013-04-03 22:18:00,58.8,50.9,29.91,SW,223,0.0,0.0,75,0.00,,,0.00,Wunderground v.1.15,2013-04-04 05:18:00,
2013-04-03 22:23:00,58.9,50.6,29.90,WSW,239,0.0,1.0,74,0.00,,,0.00,Wunderground v.1.15,2013-04-04 05:23:00,
2013-04-03 22:29:00,58.5,50.6,29.90,South,185,1.0,2.0,75,0.00,,,0.00,Wunderground v.1.15,2013-04-04 05:29:00,
2013-04-03 22:34:00,58.1,50.6,29.90,SSW,202,0.0,1.0,76,0.00,,,0.00,Wunderground v.1.15,2013-04-04 05:34:00,
2013-04-03 22:40:00,57.6,50.4,29.91,SSW,202,0.0,0.0,77,0.00,,,0.00,Wunderground v.1.15,2013-04-04 05:40:00,
2013-04-03 22:47:00,57.1,50.6,29.91,SSW,200,0.0,0.0,79,0.00,,,0.00,Wunderground v.1.15,2013-04-04 05:47:00,
2013-04-03 22:52:00,56.8,50.4,29.90,SSW,200,0.0,0.0,79,0.00,,,0.00,Wunderground v.1.15,2013-04-04 05:52:00,
2013-04-03 22:57:00,56.6,50.5,29.90,SSW,200,0.0,0.0,80,0.00,,,0.00,Wunderground v.1.15,2013-04-04 05:57:00,
2013-04-03 23:03:00,56.4,50.3,29.90,SSW,200,0.0,0.0,80,0.00,,,0.00,Wunderground v.1.15,2013-04-04 06:03:00,
2013-04-03 23:08:00,56.4,50.3,29.90,SSW,200,0.0,0.0,80,0.00,,,0.00,Wunderground v.1.15,2013-04-04 06:08:00,
2013-04-03 23:13:00,56.3,50.2,29.90,SSW,200,0.0,0.0,80,0.00,,,0.00,Wunderground v.1.15,2013-04-04 06:13:00,
2013-04-03 23:18:00,56.2,50.4,29.90,SSW,200,0.0,0.0,81,0.00,,,0.00,Wunderground v.1.15,2013-04-04 06:18:00,
2013-04-03 23:23:00,56.1,50.3,29.90,SSW,200,0.0,0.0,81,0.00,,,0.00,Wunderground v.1.15,2013-04-04 06:23:00,
2013-04-03 23:28:00,56.1,50.3,29.90,SSW,200,0.0,0.0,81,0.00,,,0.00,Wunderground v.1.15,2013-04-04 06:28:00,
2013-04-03 23:34:00,56.1,50.0,29.90,SSW,200,0.0,0.0,80,0.00,,,0.00,Wunderground v.1.15,2013-04-04 06:34:00,
2013-04-03 23:40:00,56.2,50.1,29.90,SSW,196,0.0,0.0,80,0.00,,,0.00,Wunderground v.1.15,2013-04-04 06:40:00,
2013-04-03 23:45:00,56.2,50.1,29.90,SSW,198,0.0,1.0,80,0.00,,,0.00,Wunderground v.1.15,2013-04-04 06:45:00,
2013-04-03 23:50:00,56.2,50.1,29.90,SW,226,0.0,1.0,80,0.00,,,0.00,Wunderground v.1.15,2013-04-04 06:50:00,
2013-04-03 23:56:00,56.3,50.2,29.90,SSW,207,1.0,2.0,80,0.00,,,0.00,Wunderground v.1.15,2013-04-04 06:56:00,